Time;durP1;ratioP1;P1;durP2;ratioP2;P2;SDS_P1;SDS_P2;PMS_P1;PMS_P2;Temp;Humidity;BMP_temperature;BMP_pressure;BME280_temperature;BME280_humidity;BME280_pressure;Samples;Min_cycle;Max_cycle;Signal;HPM_P1;HPM_P2
2023/04/08 00:01:11;;;;;;;10.60;5.60;;;5.70;99.90;;;;;;5163687;27;20199;-70
2023/04/08 00:03:38;;;;;;;12.40;5.57;;;5.70;99.90;;;;;;5161165;27;20199;-69
2023/04/08 00:06:05;;;;;;;8.73;4.93;;;5.70;99.90;;;;;;5159182;27;20729;-69
2023/04/08 00:08:32;;;;;;;11.03;5.80;;;5.70;99.90;;;;;;5160523;27;20284;-70
2023/04/08 00:10:59;;;;;;;9.37;5.40;;;5.60;99.90;;;;;;5164829;27;20206;-70
2023/04/08 00:13:26;;;;;;;9.10;5.63;;;5.60;99.90;;;;;;5157934;27;20285;-71
2023/04/08 00:15:54;;;;;;;13.67;6.13;;;5.60;99.90;;;;;;5155148;27;20251;-71
2023/04/08 00:18:21;;;;;;;12.23;6.60;;;5.60;99.90;;;;;;5152776;27;20200;-70
2023/04/08 00:20:48;;;;;;;10.33;5.80;;;5.60;99.90;;;;;;5158062;27;20202;-70
2023/04/08 00:23:15;;;;;;;10.60;5.50;;;5.60;99.90;;;;;;5155929;27;20196;-70
2023/04/08 00:25:42;;;;;;;10.47;5.50;;;5.60;99.90;;;;;;5164103;27;20200;-70
2023/04/08 00:28:10;;;;;;;9.27;5.33;;;5.60;99.90;;;;;;5164835;27;20203;-70
2023/04/08 00:30:37;;;;;;;12.10;5.83;;;5.60;99.90;;;;;;5160759;27;20217;-70
2023/04/08 00:33:05;;;;;;;13.57;6.43;;;5.60;99.90;;;;;;5154619;27;20286;-70
2023/04/08 00:35:32;;;;;;;8.60;5.23;;;5.60;99.90;;;;;;5163339;27;20677;-69
2023/04/08 00:37:59;;;;;;;11.40;6.10;;;5.50;99.90;;;;;;5154920;27;20246;-69
2023/04/08 00:40:26;;;;;;;10.67;6.03;;;5.50;99.90;;;;;;5160745;27;20207;-69
2023/04/08 00:42:53;;;;;;;10.17;5.93;;;5.60;99.90;;;;;;5158697;27;20203;-69
2023/04/08 00:45:20;;;;;;;10.50;5.90;;;5.60;99.90;;;;;;5159281;27;20705;-69
2023/04/08 00:47:51;;;;;;;12.33;6.50;;;5.60;99.90;;;;;;5155942;27;20208;-69
2023/04/08 00:50:20;;;;;;;11.80;6.43;;;5.50;99.90;;;;;;5153302;27;20208;-69
2023/04/08 00:52:46;;;;;;;12.33;6.63;;;5.50;99.90;;;;;;5157365;27;20538;-68
2023/04/08 00:55:13;;;;;;;12.90;6.40;;;5.40;99.90;;;;;;5162161;27;20314;-69
2023/04/08 00:57:41;;;;;;;12.07;6.33;;;5.40;99.90;;;;;;5163855;27;20247;-70
2023/04/08 01:00:10;;;;;;;12.17;6.80;;;5.40;99.90;;;;;;5161129;27;20199;-70
2023/04/08 01:02:45;;;;;;;12.00;6.47;;;5.30;99.90;;;;;;5158759;27;20608;-69
2023/04/08 01:05:18;;;;;;;11.90;6.37;;;5.30;99.90;;;;;;5160401;27;20206;-69
2023/04/08 01:07:48;;;;;;;11.20;6.73;;;5.30;99.90;;;;;;5160689;27;20327;-69
2023/04/08 01:10:18;;;;;;;13.53;6.80;;;5.30;99.90;;;;;;5158516;27;20637;-69
2023/04/08 01:12:50;;;;;;;11.73;6.40;;;5.20;99.90;;;;;;5162842;27;20243;-69
2023/04/08 01:15:17;;;;;;;15.23;7.47;;;5.20;99.90;;;;;;5158806;27;20708;-68
2023/04/08 01:17:46;;;;;;;12.90;7.23;;;5.20;99.90;;;;;;5157462;27;20247;-69
2023/04/08 01:20:15;;;;;;;14.60;7.10;;;5.20;99.90;;;;;;5155354;27;20206;-68
2023/04/08 01:23:06;;;;;;;13.87;7.10;;;5.20;99.90;;;;;;5159920;27;20210;-68
2023/04/08 01:25:36;;;;;;;13.70;6.83;;;5.10;99.90;;;;;;5159013;27;20199;-69
2023/04/08 01:28:07;;;;;;;16.53;8.13;;;5.10;99.90;;;;;;5161149;27;20632;-69
2023/04/08 01:30:35;;;;;;;14.57;7.40;;;5.10;99.90;;;;;;5163305;27;20231;-69
2023/04/08 01:33:03;;;;;;;14.40;6.80;;;5.10;99.90;;;;;;5164319;27;20204;-68
2023/04/08 01:35:31;;;;;;;14.77;7.47;;;5.00;99.90;;;;;;5157579;27;20223;-68
2023/04/08 01:38:00;;;;;;;15.57;7.63;;;5.00;99.90;;;;;;5157729;27;20211;-68
2023/04/08 01:40:27;;;;;;;15.57;8.07;;;5.00;99.90;;;;;;5156947;27;20283;-68
2023/04/08 01:42:57;;;;;;;15.73;7.87;;;5.00;99.90;;;;;;5160505;27;20202;-68
2023/04/08 01:45:26;;;;;;;14.77;7.40;;;5.10;99.90;;;;;;5157014;27;20239;-68
2023/04/08 01:47:54;;;;;;;15.53;7.50;;;5.00;99.90;;;;;;5161021;27;20210;-69
2023/04/08 01:50:22;;;;;;;14.13;7.53;;;5.10;99.90;;;;;;5158854;27;20411;-68
2023/04/08 01:52:52;;;;;;;15.77;7.20;;;5.10;99.90;;;;;;5158525;27;20257;-68
2023/04/08 01:55:20;;;;;;;15.03;7.50;;;5.10;99.90;;;;;;5162246;27;20320;-69
2023/04/08 01:57:50;;;;;;;14.83;7.67;;;5.10;99.90;;;;;;5168080;27;20243;-68
2023/04/08 02:00:22;;;;;;;15.20;7.70;;;5.10;99.90;;;;;;5163218;27;20203;-69
2023/04/08 02:02:52;;;;;;;14.27;7.57;;;5.10;99.90;;;;;;5167833;27;20282;-68
2023/04/08 02:05:19;;;;;;;15.23;7.57;;;5.10;99.90;;;;;;5158006;27;20246;-68
2023/04/08 02:07:47;;;;;;;14.17;7.50;;;5.10;99.90;;;;;;5157850;27;20232;-69
2023/04/08 02:10:14;;;;;;;15.17;7.67;;;5.20;99.90;;;;;;5155949;27;20279;-68
2023/04/08 02:12:43;;;;;;;13.50;7.43;;;5.20;99.90;;;;;;5158625;27;20204;-68
2023/04/08 02:15:11;;;;;;;16.03;8.17;;;5.20;99.90;;;;;;5155816;27;20208;-68
2023/04/08 02:17:44;;;;;;;15.73;7.40;;;5.20;99.90;;;;;;5156350;27;20196;-68
2023/04/08 02:20:17;;;;;;;15.67;8.33;;;5.20;99.90;;;;;;5159601;27;20226;-69
2023/04/08 02:22:50;;;;;;;15.40;8.20;;;5.30;99.90;;;;;;5155520;27;20254;-69
2023/04/08 02:25:21;;;;;;;13.53;7.10;;;5.30;99.90;;;;;;5154928;27;20196;-68
2023/04/08 02:27:49;;;;;;;12.90;6.90;;;5.30;99.90;;;;;;5166102;27;20283;-68
2023/04/08 02:30:17;;;;;;;12.53;7.03;;;5.30;99.90;;;;;;5164743;27;20195;-68
2023/04/08 02:32:45;;;;;;;13.37;7.17;;;5.30;99.90;;;;;;5172418;27;20219;-68
2023/04/08 02:35:16;;;;;;;12.73;6.90;;;5.30;99.90;;;;;;5153334;27;20204;-68
2023/04/08 02:37:43;;;;;;;12.80;6.87;;;5.30;99.90;;;;;;5167887;27;20708;-68
2023/04/08 02:40:34;;;;;;;14.90;7.67;;;5.30;99.90;;;;;;5163156;27;20656;-68
2023/04/08 02:43:01;;;;;;;13.57;7.23;;;5.30;99.90;;;;;;5149388;27;20199;-68
2023/04/08 02:45:31;;;;;;;12.77;6.70;;;5.30;99.90;;;;;;5154595;27;20211;-68
2023/04/08 02:48:00;;;;;;;12.27;6.77;;;5.40;99.90;;;;;;5167047;27;20226;-68
2023/04/08 02:50:29;;;;;;;12.27;6.93;;;5.40;99.90;;;;;;5159660;27;20653;-69
2023/04/08 02:52:56;;;;;;;14.23;7.17;;;5.40;99.90;;;;;;5162942;27;20601;-68
2023/04/08 02:55:23;;;;;;;12.83;6.87;;;5.30;99.90;;;;;;5162079;27;20618;-68
2023/04/08 02:57:50;;;;;;;13.00;6.90;;;5.30;99.90;;;;;;5163896;27;20234;-69
2023/04/08 03:00:17;;;;;;;13.07;6.77;;;5.30;99.90;;;;;;5162323;27;20632;-68
2023/04/08 03:02:44;;;;;;;13.83;7.17;;;5.30;99.90;;;;;;5165371;27;20237;-68
2023/04/08 03:05:11;;;;;;;13.07;7.20;;;5.30;99.90;;;;;;5173205;27;20222;-68
2023/04/08 03:07:40;;;;;;;14.37;7.90;;;5.30;99.90;;;;;;5171613;27;20287;-68
2023/04/08 03:10:08;;;;;;;13.40;7.63;;;5.30;99.90;;;;;;5167845;27;20230;-67
2023/04/08 03:12:35;;;;;;;15.00;7.17;;;5.30;99.90;;;;;;5165640;27;20717;-68
2023/04/08 03:15:02;;;;;;;13.50;6.97;;;5.30;99.90;;;;;;5172400;27;20246;-68
2023/04/08 03:17:31;;;;;;;13.83;7.90;;;5.30;99.90;;;;;;5158927;27;20223;-68
2023/04/08 03:19:58;;;;;;;14.63;7.27;;;5.40;99.90;;;;;;5162813;27;20789;-67
2023/04/08 03:22:25;;;;;;;14.10;7.37;;;5.30;99.90;;;;;;5164196;27;20235;-67
2023/04/08 03:24:53;;;;;;;14.97;7.77;;;5.30;99.90;;;;;;5156279;27;20200;-68
2023/04/08 03:27:20;;;;;;;13.93;7.27;;;5.30;99.90;;;;;;5169047;27;20195;-68
2023/04/08 03:29:47;;;;;;;16.30;7.57;;;5.40;99.90;;;;;;5156868;27;20671;-68
2023/04/08 03:32:14;;;;;;;15.53;7.47;;;5.30;99.90;;;;;;5161971;27;20617;-67
2023/04/08 03:34:41;;;;;;;16.53;8.00;;;5.30;99.90;;;;;;5155266;27;20285;-68
2023/04/08 03:37:08;;;;;;;13.53;7.47;;;5.30;99.90;;;;;;5161440;27;20259;-68
2023/04/08 03:39:35;;;;;;;16.13;8.07;;;5.30;99.90;;;;;;5163043;27;20216;-66
2023/04/08 03:42:04;;;;;;;16.23;7.40;;;5.30;99.90;;;;;;5157220;27;20254;-66
2023/04/08 03:44:31;;;;;;;15.57;7.57;;;5.30;99.90;;;;;;5164373;27;20594;-66
2023/04/08 03:46:58;;;;;;;13.43;7.20;;;5.30;99.90;;;;;;5164092;27;20645;-66
2023/04/08 03:49:25;;;;;;;15.20;7.57;;;5.30;99.90;;;;;;5169597;27;20261;-66
2023/04/08 03:51:52;;;;;;;18.67;8.73;;;5.30;99.90;;;;;;5170543;27;20234;-66
2023/04/08 03:54:19;;;;;;;15.00;7.33;;;5.20;99.90;;;;;;5166400;27;20235;-66
2023/04/08 03:56:46;;;;;;;17.40;8.00;;;5.20;99.90;;;;;;5156359;27;20254;-66
2023/04/08 03:59:14;;;;;;;19.07;8.37;;;5.20;99.90;;;;;;5172198;27;20293;-66
2023/04/08 04:01:41;;;;;;;16.63;8.43;;;5.20;99.90;;;;;;5171801;27;20271;-66
2023/04/08 04:04:08;;;;;;;16.60;8.20;;;5.20;99.90;;;;;;5163552;27;20238;-66
2023/04/08 04:06:35;;;;;;;19.20;9.40;;;5.20;99.90;;;;;;5155297;27;20633;-66
2023/04/08 04:09:02;;;;;;;16.97;7.80;;;5.20;99.90;;;;;;5161207;27;20305;-66
2023/04/08 04:11:29;;;;;;;18.13;8.73;;;5.20;99.90;;;;;;5173078;27;20710;-66
2023/04/08 04:13:56;;;;;;;18.37;8.60;;;5.20;99.90;;;;;;5156231;27;20207;-66
2023/04/08 04:16:25;;;;;;;21.47;9.30;;;5.20;99.90;;;;;;5164717;27;20582;-66
2023/04/08 04:18:52;;;;;;;17.20;8.43;;;5.10;99.90;;;;;;5168370;27;20203;-66
2023/04/08 04:21:20;;;;;;;22.67;10.73;;;5.10;99.90;;;;;;5157921;27;20203;-66
2023/04/08 04:23:46;;;;;;;19.43;9.50;;;5.10;99.90;;;;;;5166992;27;20199;-66
2023/04/08 04:26:14;;;;;;;19.37;9.20;;;5.10;99.90;;;;;;5172781;27;20578;-66
2023/04/08 04:28:40;;;;;;;18.93;9.30;;;5.10;99.90;;;;;;5172502;27;20649;-66
2023/04/08 04:31:07;;;;;;;18.03;9.40;;;5.10;99.90;;;;;;5170405;27;20243;-66
2023/04/08 04:33:36;;;;;;;18.20;8.73;;;5.10;99.90;;;;;;5166402;27;20243;-66
2023/04/08 04:36:03;;;;;;;20.67;9.80;;;5.10;99.90;;;;;;5164831;27;20589;-66
2023/04/08 04:38:30;;;;;;;19.23;9.17;;;5.00;99.90;;;;;;5167006;27;20611;-66
2023/04/08 04:40:57;;;;;;;24.33;9.57;;;5.10;99.90;;;;;;5172465;27;20247;-66
2023/04/08 04:43:24;;;;;;;19.87;8.83;;;5.00;99.90;;;;;;5172977;27;20664;-66
2023/04/08 04:45:51;;;;;;;19.60;9.80;;;5.00;99.90;;;;;;5161817;27;20230;-66
2023/04/08 04:48:18;;;;;;;18.27;8.17;;;5.00;99.90;;;;;;5158278;27;20223;-66
2023/04/08 04:50:54;;;;;;;19.17;9.33;;;5.10;99.90;;;;;;5167899;27;20739;-66
2023/04/08 04:53:21;;;;;;;20.43;8.87;;;5.10;99.90;;;;;;5166487;27;20716;-66
2023/04/08 04:55:49;;;;;;;18.87;8.90;;;5.00;99.90;;;;;;5172941;27;20265;-66
2023/04/08 04:58:16;;;;;;;19.10;9.37;;;5.00;99.90;;;;;;5176296;27;20199;-66
2023/04/08 05:00:43;;;;;;;18.73;8.70;;;5.00;99.90;;;;;;5171501;27;20278;-66
2023/04/08 05:03:10;;;;;;;21.40;10.30;;;5.10;99.90;;;;;;5174044;27;20199;-66
2023/04/08 05:05:37;;;;;;;17.57;8.60;;;5.10;99.90;;;;;;5174252;27;20586;-66
2023/04/08 05:08:06;;;;;;;21.30;10.00;;;5.00;99.90;;;;;;5169167;27;20238;-66
2023/04/08 05:10:33;;;;;;;17.97;8.43;;;5.10;99.90;;;;;;5162566;27;20561;-66
2023/04/08 05:13:00;;;;;;;19.33;9.67;;;5.00;99.90;;;;;;5155930;27;20231;-66
2023/04/08 05:15:27;;;;;;;21.47;8.73;;;5.00;99.90;;;;;;5157237;27;20654;-66
2023/04/08 05:17:54;;;;;;;17.90;8.67;;;5.00;99.90;;;;;;5173223;27;20215;-66
2023/04/08 05:20:21;;;;;;;25.03;10.53;;;4.90;99.90;;;;;;5167036;27;20268;-66
2023/04/08 05:22:49;;;;;;;21.40;11.00;;;4.90;99.90;;;;;;5156168;27;20231;-66
2023/04/08 05:25:18;;;;;;;24.63;10.80;;;4.90;99.90;;;;;;5163787;27;20234;-66
2023/04/08 05:27:45;;;;;;;24.27;11.70;;;4.90;99.90;;;;;;5164294;27;20207;-66
2023/04/08 05:30:13;;;;;;;30.43;12.33;;;4.90;99.90;;;;;;5161270;27;20679;-66
2023/04/08 05:32:40;;;;;;;25.77;11.83;;;4.80;99.90;;;;;;5175999;27;20203;-66
2023/04/08 05:35:08;;;;;;;27.10;12.23;;;4.80;99.90;;;;;;5156904;27;20215;-66
2023/04/08 05:37:35;;;;;;;28.37;12.57;;;4.80;99.90;;;;;;5157167;27;20208;-66
2023/04/08 05:40:02;;;;;;;29.67;13.13;;;4.80;99.90;;;;;;5159771;27;20233;-66
2023/04/08 05:42:31;;;;;;;26.77;12.13;;;4.80;99.90;;;;;;5174962;27;20238;-66
2023/04/08 05:44:58;;;;;;;28.17;12.13;;;4.80;99.90;;;;;;5156291;27;20601;-67
2023/04/08 05:47:25;;;;;;;28.23;11.70;;;4.80;99.90;;;;;;5158184;27;20227;-66
2023/04/08 05:49:52;;;;;;;28.93;12.43;;;4.70;99.90;;;;;;5167390;27;20593;-66
2023/04/08 05:52:19;;;;;;;32.63;14.03;;;4.80;99.90;;;;;;5169982;27;20665;-66
2023/04/08 05:54:46;;;;;;;30.30;13.17;;;4.80;99.90;;;;;;5166330;27;20230;-67
2023/04/08 05:57:13;;;;;;;29.63;13.20;;;4.80;99.90;;;;;;5162670;27;20224;-66
2023/04/08 05:59:41;;;;;;;27.00;12.30;;;4.80;99.90;;;;;;5164654;27;20247;-66
2023/04/08 06:02:08;;;;;;;29.23;12.33;;;4.80;99.90;;;;;;5174804;27;20237;-66
2023/04/08 06:04:35;;;;;;;30.17;13.03;;;4.90;99.90;;;;;;5166416;27;20195;-66
2023/04/08 06:07:03;;;;;;;29.17;13.67;;;4.80;99.90;;;;;;5163745;27;20239;-67
2023/04/08 06:09:30;;;;;;;28.20;12.33;;;4.90;99.90;;;;;;5174858;27;20262;-66
2023/04/08 06:11:57;;;;;;;26.73;11.90;;;4.80;99.90;;;;;;5164222;27;20207;-67
2023/04/08 06:14:24;;;;;;;32.63;13.73;;;4.90;99.90;;;;;;5160484;27;20238;-67
2023/04/08 06:16:53;;;;;;;29.67;13.43;;;4.90;99.90;;;;;;5160446;27;20255;-66
2023/04/08 06:19:20;;;;;;;26.37;12.80;;;4.90;99.90;;;;;;5169405;27;20260;-66
2023/04/08 06:21:47;;;;;;;28.23;13.27;;;4.90;99.90;;;;;;5173408;27;20627;-67
2023/04/08 06:24:14;;;;;;;28.17;12.63;;;4.90;99.90;;;;;;5175147;27;20641;-67
2023/04/08 06:26:41;;;;;;;31.37;13.83;;;4.90;99.90;;;;;;5167267;27;20259;-67
2023/04/08 06:29:08;;;;;;;28.67;13.00;;;5.00;99.90;;;;;;5161308;27;20231;-67
2023/04/08 06:31:35;;;;;;;25.10;11.90;;;5.10;99.90;;;;;;5160484;27;20200;-67
2023/04/08 06:34:03;;;;;;;26.40;12.03;;;5.10;99.90;;;;;;5160697;27;20246;-67
2023/04/08 06:36:30;;;;;;;28.57;11.73;;;5.10;99.90;;;;;;5164492;27;20656;-67
2023/04/08 06:38:57;;;;;;;25.87;11.53;;;5.10;99.90;;;;;;5165262;27;20203;-67
2023/04/08 06:41:24;;;;;;;27.07;12.13;;;5.10;99.90;;;;;;5166865;27;20227;-67
2023/04/08 06:43:51;;;;;;;23.67;11.73;;;5.10;99.90;;;;;;5169257;27;20206;-67
2023/04/08 06:46:18;;;;;;;26.67;11.93;;;5.20;99.90;;;;;;5172446;27;20224;-67
2023/04/08 06:48:45;;;;;;;25.93;11.37;;;5.10;99.90;;;;;;5172693;27;20206;-67
2023/04/08 06:51:13;;;;;;;26.77;11.87;;;5.20;99.90;;;;;;5164624;27;20671;-67
2023/04/08 06:53:40;;;;;;;29.30;12.97;;;5.20;99.90;;;;;;5169073;27;20199;-67
2023/04/08 06:56:07;;;;;;;27.90;12.20;;;5.20;99.90;;;;;;5165216;27;20694;-67
2023/04/08 06:58:34;;;;;;;26.50;11.67;;;5.20;99.90;;;;;;5165831;27;20215;-67
2023/04/08 07:01:02;;;;;;;25.83;11.93;;;5.10;99.90;;;;;;5165057;27;20194;-66
2023/04/08 07:03:29;;;;;;;26.43;12.80;;;5.20;99.90;;;;;;5158580;27;20207;-67
2023/04/08 07:05:56;;;;;;;27.47;12.73;;;5.30;99.90;;;;;;5156583;27;20230;-67
2023/04/08 07:08:24;;;;;;;23.37;11.37;;;5.20;99.90;;;;;;5163877;27;20681;-67
2023/04/08 07:10:52;;;;;;;23.97;11.33;;;5.20;99.90;;;;;;5160232;27;20297;-67
2023/04/08 07:13:19;;;;;;;22.70;10.30;;;5.30;99.90;;;;;;5170117;27;20235;-67
2023/04/08 07:15:46;;;;;;;23.27;10.93;;;5.30;99.90;;;;;;5165706;27;20246;-67
2023/04/08 07:18:13;;;;;;;25.63;10.67;;;5.30;99.90;;;;;;5170329;27;20609;-67
2023/04/08 07:20:40;;;;;;;24.77;11.90;;;5.30;99.90;;;;;;5168622;27;20311;-67
2023/04/08 07:23:07;;;;;;;26.13;12.03;;;5.40;99.90;;;;;;5164957;27;20656;-65
2023/04/08 07:25:36;;;;;;;27.40;12.97;;;5.40;99.90;;;;;;5172626;27;20234;-65
2023/04/08 07:28:03;;;;;;;23.47;11.37;;;5.40;99.90;;;;;;5162812;27;20206;-66
2023/04/08 07:30:30;;;;;;;24.27;11.40;;;5.40;99.90;;;;;;5165602;27;20207;-65
2023/04/08 07:32:57;;;;;;;23.47;11.20;;;5.50;99.90;;;;;;5160386;27;20206;-66
2023/04/08 07:35:24;;;;;;;26.77;12.23;;;5.50;99.90;;;;;;5163322;27;20214;-66
2023/04/08 07:37:52;;;;;;;23.07;10.80;;;5.50;99.90;;;;;;5158122;27;20222;-65
2023/04/08 07:40:19;;;;;;;26.67;12.50;;;5.50;99.90;;;;;;5162634;27;20238;-67
2023/04/08 07:42:48;;;;;;;25.93;12.17;;;5.60;99.90;;;;;;5164301;27;20214;-66
2023/04/08 07:45:15;;;;;;;24.50;12.03;;;5.60;99.90;;;;;;5170053;27;20199;-66
2023/04/08 07:47:42;;;;;;;26.00;11.97;;;5.60;99.90;;;;;;5171774;27;20246;-65
2023/04/08 07:50:09;;;;;;;26.20;12.80;;;5.60;99.90;;;;;;5163019;27;20242;-66
2023/04/08 07:52:36;;;;;;;24.97;11.43;;;5.60;99.90;;;;;;5168420;27;20645;-65
2023/04/08 07:55:04;;;;;;;25.70;12.43;;;5.60;99.90;;;;;;5159643;27;20287;-65
2023/04/08 07:57:31;;;;;;;26.30;11.93;;;5.60;99.90;;;;;;5162376;27;20284;-66
2023/04/08 08:00:00;;;;;;;24.83;11.80;;;5.70;99.90;;;;;;5159435;27;20235;-65
2023/04/08 08:02:26;;;;;;;26.87;13.17;;;5.80;99.90;;;;;;5159028;27;20236;-65
2023/04/08 08:04:53;;;;;;;26.47;12.30;;;5.90;99.90;;;;;;5157716;27;20294;-65
2023/04/08 08:07:20;;;;;;;26.03;12.67;;;5.90;99.90;;;;;;5155657;27;20619;-65
2023/04/08 08:09:47;;;;;;;26.43;13.03;;;6.10;99.90;;;;;;5162148;27;20226;-65
2023/04/08 08:12:15;;;;;;;23.33;11.10;;;6.10;99.90;;;;;;5162580;27;20237;-65
2023/04/08 08:14:41;;;;;;;26.87;12.53;;;6.00;99.90;;;;;;5158845;27;20278;-65
2023/04/08 08:17:11;;;;;;;24.83;12.10;;;6.00;99.90;;;;;;5154087;27;20279;-65
2023/04/08 08:19:38;;;;;;;23.57;10.20;;;6.00;99.90;;;;;;5152047;27;20211;-66
2023/04/08 08:22:05;;;;;;;25.13;10.90;;;6.00;99.90;;;;;;5156418;27;20246;-65
2023/04/08 08:24:32;;;;;;;24.97;11.00;;;6.00;99.90;;;;;;5155625;27;20257;-65
2023/04/08 08:27:00;;;;;;;24.93;11.73;;;5.90;99.90;;;;;;5158987;27;20231;-65
2023/04/08 08:29:26;;;;;;;23.83;11.53;;;6.00;99.90;;;;;;5160650;27;20202;-65
2023/04/08 08:31:54;;;;;;;29.07;12.13;;;6.00;99.90;;;;;;5157106;27;20238;-65
2023/04/08 08:34:22;;;;;;;29.53;12.50;;;5.90;99.90;;;;;;5161190;27;20679;-65
2023/04/08 08:36:49;;;;;;;28.13;12.83;;;6.00;99.90;;;;;;5157304;27;20729;-65
2023/04/08 08:39:16;;;;;;;27.17;12.93;;;6.00;99.90;;;;;;5161916;27;20313;-65
2023/04/08 08:41:43;;;;;;;24.43;12.33;;;6.00;99.90;;;;;;5164682;27;20595;-65
2023/04/08 08:44:11;;;;;;;25.43;11.47;;;6.00;99.90;;;;;;5173712;27;20230;-65
2023/04/08 08:46:43;;;;;;;28.70;12.87;;;6.00;99.90;;;;;;5160648;27;20280;-66
2023/04/08 08:49:11;;;;;;;27.33;12.40;;;5.90;99.90;;;;;;5164929;27;20203;-65
2023/04/08 08:51:40;;;;;;;26.67;12.57;;;6.00;99.90;;;;;;5163628;27;20235;-65
2023/04/08 08:54:08;;;;;;;25.97;12.03;;;6.10;99.90;;;;;;5159534;27;20231;-65
2023/04/08 08:56:35;;;;;;;25.23;11.93;;;6.10;99.90;;;;;;5163489;27;20204;-65
2023/04/08 08:59:02;;;;;;;29.87;13.27;;;6.10;99.90;;;;;;5166430;27;20219;-65
2023/04/08 09:01:36;;;;;;;27.50;12.73;;;6.10;99.90;;;;;;5164236;27;20287;-66
2023/04/08 09:04:15;;;;;;;27.00;12.30;;;6.10;99.90;;;;;;5158423;27;20288;-65
2023/04/08 09:06:44;;;;;;;30.63;14.40;;;6.20;99.90;;;;;;5143956;27;20248;-66
2023/04/08 09:09:11;;;;;;;28.57;13.53;;;6.10;99.90;;;;;;5160289;27;20238;-65
2023/04/08 09:11:39;;;;;;;31.07;14.53;;;6.20;99.90;;;;;;5159524;27;20260;-65
2023/04/08 09:14:16;;;;;;;28.53;13.83;;;6.20;99.90;;;;;;5164616;27;20714;-65
2023/04/08 09:16:44;;;;;;;32.30;13.83;;;6.10;99.90;;;;;;5142197;27;20293;-65
2023/04/08 09:19:12;;;;;;;25.70;12.73;;;6.20;99.90;;;;;;5162784;27;20234;-65
2023/04/08 09:21:40;;;;;;;29.03;13.17;;;6.20;99.90;;;;;;5159837;27;20588;-65
2023/04/08 09:24:09;;;;;;;29.47;12.60;;;6.20;99.90;;;;;;5170037;27;20208;-65
2023/04/08 09:26:37;;;;;;;32.30;14.57;;;6.20;99.90;;;;;;5161858;27;20207;-65
2023/04/08 09:29:05;;;;;;;30.20;13.20;;;6.20;99.90;;;;;;5162975;27;20215;-68
2023/04/08 09:31:35;;;;;;;29.77;12.43;;;6.20;99.90;;;;;;5175276;27;20209;-68
2023/04/08 09:34:11;;;;;;;29.77;13.30;;;6.20;99.90;;;;;;5169995;27;20222;-68
2023/04/08 09:36:38;;;;;;;29.13;12.90;;;6.20;99.90;;;;;;5175929;27;20725;-69
2023/04/08 09:39:06;;;;;;;30.10;13.63;;;6.10;99.90;;;;;;5168441;27;20222;-68
2023/04/08 09:41:36;;;;;;;30.23;13.73;;;6.20;99.90;;;;;;5177164;27;20210;-69
2023/04/08 09:44:04;;;;;;;31.53;13.50;;;6.30;99.90;;;;;;5177050;27;20203;-68
2023/04/08 09:46:37;;;;;;;27.30;12.67;;;6.30;99.90;;;;;;5171256;27;20215;-69
2023/04/08 09:49:06;;;;;;;26.97;13.03;;;6.30;99.90;;;;;;5158030;27;20256;-68
2023/04/08 09:51:40;;;;;;;29.13;14.27;;;6.30;99.90;;;;;;5177091;27;20206;-69
2023/04/08 09:54:12;;;;;;;27.40;11.77;;;6.30;99.90;;;;;;5155682;27;20207;-68
2023/04/08 09:56:44;;;;;;;29.80;12.83;;;6.30;99.90;;;;;;5163189;27;20200;-68
2023/04/08 09:59:16;;;;;;;28.07;12.97;;;6.50;99.90;;;;;;5169493;27;20281;-69
2023/04/08 10:01:46;;;;;;;27.57;13.57;;;6.50;99.90;;;;;;5171191;27;20290;-69
2023/04/08 10:04:16;;;;;;;29.03;12.23;;;6.50;99.90;;;;;;5170200;27;20212;-69
2023/04/08 10:06:43;;;;;;;28.70;12.33;;;6.50;99.90;;;;;;5170455;27;20195;-68
2023/04/08 10:09:10;;;;;;;29.50;13.60;;;6.50;99.90;;;;;;5167895;27;20199;-69
2023/04/08 10:11:37;;;;;;;26.03;12.20;;;6.60;99.90;;;;;;5162156;27;20207;-69
2023/04/08 10:14:06;;;;;;;28.97;13.20;;;6.70;99.90;;;;;;5174294;27;20565;-68
2023/04/08 10:16:33;;;;;;;25.97;11.87;;;6.60;99.90;;;;;;5174867;27;20651;-69
2023/04/08 10:19:01;;;;;;;26.57;11.77;;;6.70;99.90;;;;;;5160177;27;20219;-69
2023/04/08 10:21:35;;;;;;;25.47;12.13;;;6.60;99.90;;;;;;5169256;27;20258;-69
2023/04/08 10:24:07;;;;;;;27.60;12.63;;;6.60;99.90;;;;;;5171010;27;20198;-68
2023/04/08 10:26:36;;;;;;;28.33;12.37;;;6.60;99.90;;;;;;5169899;27;20238;-68
2023/04/08 10:29:42;;;;;;;26.57;12.10;;;6.70;99.90;;;;;;5167373;27;20218;-68
2023/04/08 10:32:28;;;;;;;23.87;11.93;;;6.70;99.90;;;;;;5166683;27;20208;-68
2023/04/08 10:34:55;;;;;;;24.27;12.60;;;6.80;99.90;;;;;;5171003;27;20268;-68
2023/04/08 10:37:22;;;;;;;29.73;13.37;;;6.80;99.90;;;;;;5168310;27;20244;-68
2023/04/08 10:39:51;;;;;;;27.70;12.87;;;6.80;99.90;;;;;;5170327;27;20337;-69
2023/04/08 10:42:18;;;;;;;24.43;11.80;;;6.90;99.90;;;;;;5166716;27;20581;-68
2023/04/08 10:44:46;;;;;;;23.97;11.27;;;6.80;99.90;;;;;;5171007;27;20310;-68
2023/04/08 10:47:27;;;;;;;26.53;13.40;;;6.70;99.90;;;;;;5170095;27;20211;-68
2023/04/08 10:49:54;;;;;;;28.13;12.90;;;6.70;99.90;;;;;;5162099;27;20203;-69
2023/04/08 10:52:22;;;;;;;28.37;12.73;;;6.80;99.90;;;;;;5161994;27;20230;-69
2023/04/08 10:54:49;;;;;;;27.50;13.50;;;6.90;99.90;;;;;;5172288;27;20207;-69
2023/04/08 10:57:23;;;;;;;27.87;12.33;;;6.90;99.90;;;;;;5167146;27;20285;-69
2023/04/08 10:59:50;;;;;;;24.23;12.23;;;6.80;99.90;;;;;;5165937;27;20549;-69
2023/04/08 11:02:18;;;;;;;25.13;12.83;;;6.90;99.90;;;;;;5161069;27;20697;-70
2023/04/08 11:04:47;;;;;;;26.33;13.70;;;6.90;99.90;;;;;;5163342;27;20227;-70
2023/04/08 11:07:14;;;;;;;26.43;13.33;;;7.00;99.90;;;;;;5169908;27;20213;-69
2023/04/08 11:09:41;;;;;;;30.70;14.20;;;7.00;99.90;;;;;;5167654;27;20211;-70
2023/04/08 11:12:08;;;;;;;26.50;13.00;;;6.90;99.90;;;;;;5163672;27;20672;-70
2023/04/08 11:14:37;;;;;;;25.00;12.57;;;7.00;99.90;;;;;;5159690;27;20665;-70
2023/04/08 11:17:04;;;;;;;24.70;12.27;;;7.00;99.90;;;;;;5160767;27;20671;-69
2023/04/08 11:19:35;;;;;;;25.83;12.67;;;7.00;99.90;;;;;;5165147;27;20219;-70
2023/04/08 11:22:03;;;;;;;30.50;13.27;;;7.00;99.90;;;;;;5166611;27;20660;-69
2023/04/08 11:24:30;;;;;;;25.00;12.23;;;6.90;99.90;;;;;;5162224;27;20203;-70
2023/04/08 11:26:58;;;;;;;27.30;13.47;;;7.00;99.90;;;;;;5163455;27;20656;-70
2023/04/08 11:29:25;;;;;;;24.90;12.23;;;6.90;99.90;;;;;;5164910;27;20635;-69
2023/04/08 11:31:52;;;;;;;27.43;13.90;;;6.90;99.90;;;;;;5163532;27;20203;-69
2023/04/08 11:34:27;;;;;;;27.43;13.87;;;7.00;99.90;;;;;;5160401;27;20210;-70
2023/04/08 11:36:57;;;;;;;25.50;12.10;;;7.20;99.90;;;;;;5162214;27;20214;-70
2023/04/08 11:39:24;;;;;;;25.20;12.63;;;7.10;99.90;;;;;;5161177;27;20282;-70
2023/04/08 11:41:52;;;;;;;24.83;12.50;;;7.00;99.90;;;;;;5167022;27;20703;-70
2023/04/08 11:44:19;;;;;;;26.23;12.47;;;7.00;99.90;;;;;;5161715;27;20218;-70
2023/04/08 11:46:54;;;;;;;25.13;12.17;;;7.10;99.90;;;;;;5161014;27;20239;-70
2023/04/08 11:49:21;;;;;;;23.47;11.20;;;6.90;99.90;;;;;;5143383;27;20194;-69
2023/04/08 11:51:57;;;;;;;23.40;12.47;;;6.90;99.90;;;;;;5167638;27;20615;-69
2023/04/08 11:54:28;;;;;;;24.30;12.77;;;6.80;99.90;;;;;;5154907;27;20237;-69
2023/04/08 11:56:57;;;;;;;23.30;11.87;;;6.90;99.90;;;;;;5165869;27;20202;-69
2023/04/08 11:59:24;;;;;;;28.87;13.47;;;6.90;99.90;;;;;;5162970;27;20223;-69
2023/04/08 12:01:52;;;;;;;26.33;12.60;;;6.90;99.90;;;;;;5166398;27;20213;-70
2023/04/08 12:04:19;;;;;;;27.63;12.73;;;6.90;99.90;;;;;;5159828;27;20207;-71
2023/04/08 12:06:47;;;;;;;29.10;13.20;;;6.90;99.90;;;;;;5166023;27;20301;-70
2023/04/08 12:09:15;;;;;;;28.47;14.00;;;7.00;99.90;;;;;;5160656;27;20260;-69
2023/04/08 12:11:42;;;;;;;25.70;12.53;;;7.00;99.90;;;;;;5156991;27;20239;-69
2023/04/08 12:14:10;;;;;;;28.13;12.67;;;7.00;99.90;;;;;;5165592;27;20199;-69
2023/04/08 12:16:37;;;;;;;29.43;13.43;;;7.00;99.90;;;;;;5164108;27;20209;-69
2023/04/08 12:19:04;;;;;;;28.10;13.70;;;7.00;99.90;;;;;;5162615;27;20235;-69
2023/04/08 12:21:32;;;;;;;27.93;12.87;;;7.00;99.90;;;;;;5162081;27;20255;-69
2023/04/08 12:23:59;;;;;;;28.77;13.43;;;7.00;99.90;;;;;;5164942;27;20361;-69
2023/04/08 12:26:28;;;;;;;28.97;13.53;;;7.00;99.90;;;;;;5159305;27;20210;-70
2023/04/08 12:28:54;;;;;;;28.17;12.57;;;7.10;99.90;;;;;;5162407;27;20195;-69
2023/04/08 12:31:22;;;;;;;29.63;13.20;;;7.00;99.90;;;;;;5164601;27;20213;-70
2023/04/08 12:33:48;;;;;;;27.57;13.17;;;7.10;99.90;;;;;;5165660;27;20218;-69
2023/04/08 12:36:16;;;;;;;29.20;12.27;;;7.20;99.90;;;;;;5162431;27;20210;-70
2023/04/08 12:38:42;;;;;;;25.93;11.77;;;7.20;99.90;;;;;;5162506;27;20219;-68
2023/04/08 12:41:09;;;;;;;26.23;11.37;;;7.10;99.90;;;;;;5160750;27;20234;-70
2023/04/08 12:43:37;;;;;;;27.97;13.47;;;7.20;99.90;;;;;;5162140;27;20704;-64
2023/04/08 12:46:04;;;;;;;27.80;11.60;;;7.20;99.90;;;;;;5166719;27;20226;-64